createdAt,value
2019-02-15T00:00:46.057Z,17.82
2019-02-15T00:01:21.376Z,15.72
2019-02-15T00:01:54.218Z,15.90
2019-02-15T00:02:30.027Z,14.73
2019-02-15T00:03:02.723Z,15.45
2019-02-15T00:03:35.189Z,15.50
2019-02-15T00:04:07.972Z,15.58
2019-02-15T00:04:40.452Z,17.77
2019-02-15T00:05:13.217Z,16.35
2019-02-15T00:05:45.706Z,16.55
2019-02-15T00:06:18.526Z,16.77
2019-02-15T00:06:51.396Z,15.58
2019-02-15T00:07:23.908Z,16.40
2019-02-15T00:07:56.399Z,16.50
2019-02-15T00:08:29.607Z,14.87
2019-02-15T00:09:03.934Z,16.12
2019-02-15T00:09:36.428Z,14.63
2019-02-15T00:10:08.916Z,14.73
2019-02-15T00:10:41.674Z,15.45
2019-02-15T00:11:14.162Z,15.70
2019-02-15T00:11:46.692Z,16.40
2019-02-15T00:12:19.877Z,16.27
2019-02-15T00:12:52.644Z,15.90
2019-02-15T00:13:25.128Z,16.05
2019-02-15T00:14:00.646Z,15.48
2019-02-15T00:14:45.191Z,15.75
2019-02-15T00:15:17.670Z,15.45
2019-02-15T00:15:50.146Z,14.98
2019-02-15T00:16:23.441Z,15.40
2019-02-15T00:16:55.942Z,15.18
2019-02-15T00:17:46.637Z,14.23
2019-02-15T00:18:38.352Z,15.93
2019-02-15T00:19:29.036Z,15.55
2019-02-15T00:20:06.191Z,15.85
2019-02-15T00:20:46.430Z,16.40
2019-02-15T00:21:24.003Z,16.20
2019-02-15T00:21:57.072Z,15.72
2019-02-15T00:22:29.975Z,14.68
2019-02-15T00:23:02.984Z,14.00
2019-02-15T00:23:35.778Z,15.40
2019-02-15T00:24:08.549Z,16.00
2019-02-15T00:24:41.023Z,15.28
2019-02-15T00:25:13.521Z,16.32
2019-02-15T00:25:46.287Z,15.93
2019-02-15T00:26:19.064Z,14.60
2019-02-15T00:26:51.555Z,13.95
2019-02-15T00:27:24.733Z,15.23
2019-02-15T00:27:57.186Z,14.10
2019-02-15T00:28:29.684Z,16.12
2019-02-15T00:29:02.565Z,14.78
2019-02-15T00:29:35.457Z,15.80
2019-02-15T00:30:10.080Z,15.03
2019-02-15T00:30:42.859Z,13.65
2019-02-15T00:31:18.369Z,15.15
2019-02-15T00:31:50.856Z,14.95
2019-02-15T00:32:23.747Z,15.08
2019-02-15T00:32:56.235Z,14.43
2019-02-15T00:33:28.747Z,14.75
2019-02-15T00:34:01.819Z,16.02
2019-02-15T00:34:34.707Z,14.23
2019-02-15T00:35:07.829Z,14.58
2019-02-15T00:35:40.603Z,14.07
2019-02-15T00:36:13.112Z,14.40
2019-02-15T00:36:45.880Z,13.75
2019-02-15T00:37:18.643Z,13.75
2019-02-15T00:37:51.683Z,14.70
2019-02-15T00:38:24.442Z,14.35
2019-02-15T00:38:56.969Z,14.07
2019-02-15T00:39:29.459Z,15.28
2019-02-15T00:40:02.262Z,14.38
2019-02-15T00:40:35.022Z,14.60
2019-02-15T00:41:07.507Z,15.10
2019-02-15T00:41:40.559Z,13.85
2019-02-15T00:42:13.026Z,15.32
2019-02-15T00:42:45.532Z,15.32
2019-02-15T00:43:22.229Z,14.73
2019-02-15T00:43:52.594Z,14.33
2019-02-15T00:44:25.739Z,14.70
2019-02-15T00:44:58.270Z,14.40
2019-02-15T00:45:32.518Z,13.75
2019-02-15T00:46:23.564Z,14.75
2019-02-15T00:47:06.083Z,14.18
2019-02-15T00:47:41.915Z,14.85
2019-02-15T00:48:16.920Z,12.98
2019-02-15T00:48:49.797Z,14.28
2019-02-15T00:49:42.123Z,13.80
2019-02-15T00:50:29.725Z,13.00
2019-02-15T00:51:12.623Z,13.43
2019-02-15T00:52:03.499Z,13.72
2019-02-15T00:53:07.756Z,13.28
2019-02-15T00:53:45.757Z,13.55
2019-02-15T00:54:37.748Z,13.65
2019-02-15T00:55:35.832Z,13.50
2019-02-15T00:56:26.514Z,12.80
2019-02-15T00:57:28.755Z,14.85
2019-02-15T00:58:11.759Z,13.62
2019-02-15T00:58:54.211Z,14.10
2019-02-15T00:59:52.198Z,14.00
2019-02-15T01:00:47.443Z,14.47
2019-02-15T01:01:29.504Z,14.28
2019-02-15T01:02:09.294Z,12.98
2019-02-15T01:02:59.642Z,14.65
2019-02-15T01:03:44.271Z,14.15
2019-02-15T01:04:23.873Z,13.68
2019-02-15T01:05:14.610Z,12.70
2019-02-15T01:06:15.707Z,13.20
2019-02-15T01:07:08.054Z,14.65
2019-02-15T01:08:02.821Z,13.95
2019-02-15T01:09:07.072Z,13.40
2019-02-15T01:09:44.717Z,14.55
2019-02-15T01:10:46.173Z,14.23
2019-02-15T01:11:27.946Z,13.35
2019-02-15T01:12:13.296Z,14.05
2019-02-15T01:12:52.926Z,13.50
2019-02-15T01:13:31.189Z,14.55
2019-02-15T01:14:00.812Z,12.93
2019-02-15T01:14:33.294Z,12.37
2019-02-15T01:15:05.914Z,14.87
2019-02-15T01:15:38.424Z,14.15
2019-02-15T01:16:10.899Z,15.15
2019-02-15T01:16:43.967Z,13.25
2019-02-15T01:17:17.125Z,13.10
2019-02-15T01:17:49.908Z,14.98
2019-02-15T01:18:22.723Z,12.88
2019-02-15T01:18:55.810Z,14.05
2019-02-15T01:19:28.576Z,12.60
2019-02-15T01:20:01.064Z,13.68
2019-02-15T01:20:33.563Z,14.28
2019-02-15T01:21:06.065Z,14.35
2019-02-15T01:21:39.154Z,14.25
2019-02-15T01:22:12.025Z,13.65
2019-02-15T01:22:44.891Z,14.20
2019-02-15T01:23:17.418Z,14.05
2019-02-15T01:23:49.903Z,13.28
2019-02-15T01:24:22.392Z,13.70
2019-02-15T01:24:55.331Z,12.75
2019-02-15T01:25:31.176Z,14.18
2019-02-15T01:26:10.413Z,14.18
2019-02-15T01:26:45.325Z,13.38
2019-02-15T01:27:32.306Z,13.53
2019-02-15T01:28:13.712Z,13.15
2019-02-15T01:29:08.975Z,13.00
2019-02-15T01:29:59.625Z,13.28
2019-02-15T01:30:54.123Z,12.60
2019-02-15T01:31:39.168Z,13.08
2019-02-15T01:32:23.451Z,14.25
2019-02-15T01:33:27.573Z,12.35
2019-02-15T01:34:10.822Z,12.40
2019-02-15T01:34:50.606Z,11.73
2019-02-15T01:35:42.570Z,14.20
2019-02-15T01:36:37.338Z,13.70
2019-02-15T01:37:38.857Z,13.00
2019-02-15T01:38:29.852Z,11.88
2019-02-15T01:39:31.136Z,11.95
2019-02-15T01:40:21.991Z,14.28
2019-02-15T01:41:13.775Z,11.63
2019-02-15T01:42:05.741Z,12.75
2019-02-15T01:42:43.578Z,11.88
2019-02-15T01:43:29.347Z,13.50
2019-02-15T01:44:15.873Z,13.78
2019-02-15T01:45:26.332Z,12.60
2019-02-15T01:46:23.982Z,12.20
2019-02-15T01:47:06.923Z,12.78
2019-02-15T01:47:43.215Z,11.95
2019-02-15T01:48:16.025Z,12.70
2019-02-15T01:48:48.499Z,12.85
2019-02-15T01:49:21.421Z,14.47
2019-02-15T01:49:54.297Z,13.60
2019-02-15T01:50:27.086Z,12.37
2019-02-15T01:50:59.854Z,12.88
2019-02-15T01:51:32.931Z,13.25
2019-02-15T01:52:06.701Z,13.78
2019-02-15T01:52:39.181Z,12.47
2019-02-15T01:53:12.359Z,13.98
2019-02-15T01:53:44.846Z,12.53
2019-02-15T01:54:17.331Z,12.90
2019-02-15T01:54:50.503Z,12.70
2019-02-15T01:55:23.000Z,13.70
2019-02-15T01:55:55.509Z,14.05
2019-02-15T01:56:28.737Z,12.70
2019-02-15T01:57:01.206Z,13.95
2019-02-15T01:57:33.988Z,12.47
2019-02-15T01:58:06.468Z,13.95
2019-02-15T01:58:39.507Z,13.15
2019-02-15T01:59:11.986Z,13.38
2019-02-15T01:59:44.470Z,12.40
2019-02-15T02:00:18.175Z,13.15
2019-02-15T02:00:51.107Z,11.68
2019-02-15T02:01:25.182Z,13.20
2019-02-15T02:01:57.677Z,12.70
2019-02-15T02:02:30.283Z,13.03
2019-02-15T02:03:03.040Z,13.50
2019-02-15T02:03:35.818Z,12.25
2019-02-15T02:04:08.580Z,13.35
2019-02-15T02:04:41.341Z,12.50
2019-02-15T02:05:14.246Z,14.25
2019-02-15T02:05:47.270Z,12.50
2019-02-15T02:06:20.234Z,13.60
2019-02-15T02:06:52.702Z,13.03
2019-02-15T02:07:25.471Z,12.90
2019-02-15T02:07:58.092Z,12.80
2019-02-15T02:08:32.486Z,12.75
2019-02-15T02:09:05.798Z,13.05
2019-02-15T02:09:38.768Z,12.88
2019-02-15T02:10:11.244Z,13.53
2019-02-15T02:10:43.760Z,12.95
2019-02-15T02:11:16.272Z,12.85
2019-02-15T02:11:49.040Z,12.33
2019-02-15T02:12:22.362Z,13.22
2019-02-15T02:12:55.120Z,12.70
2019-02-15T02:13:27.628Z,13.08
2019-02-15T02:14:00.098Z,12.80
2019-02-15T02:14:32.595Z,12.82
2019-02-15T02:15:05.503Z,13.03
2019-02-15T02:15:38.298Z,12.70
2019-02-15T02:16:11.063Z,13.10
2019-02-15T02:16:43.573Z,12.68
2019-02-15T02:17:16.079Z,14.30
2019-02-15T02:17:48.556Z,13.50
2019-02-15T02:18:21.330Z,12.93
2019-02-15T02:18:53.820Z,11.88
2019-02-15T02:19:26.316Z,13.18
2019-02-15T02:19:58.790Z,12.15
2019-02-15T02:20:31.434Z,11.65
2019-02-15T02:21:03.917Z,13.93
2019-02-15T02:21:36.423Z,12.90
2019-02-15T02:22:09.348Z,13.05
2019-02-15T02:22:41.836Z,13.30
2019-02-15T02:23:14.310Z,13.10
2019-02-15T02:23:46.797Z,11.90
2019-02-15T02:24:19.611Z,13.43
2019-02-15T02:24:52.785Z,13.72
2019-02-15T02:25:25.317Z,12.10
2019-02-15T02:25:58.401Z,13.38
2019-02-15T02:26:30.891Z,13.20
2019-02-15T02:27:03.374Z,12.07
2019-02-15T02:27:35.904Z,13.85
2019-02-15T02:28:08.407Z,12.70
2019-02-15T02:28:40.885Z,13.15
2019-02-15T02:29:13.650Z,14.38
2019-02-15T02:29:46.134Z,13.43
2019-02-15T02:30:18.627Z,12.03
2019-02-15T02:30:51.221Z,13.05
2019-02-15T02:31:24.261Z,13.60
2019-02-15T02:31:57.044Z,12.03
2019-02-15T02:32:29.911Z,12.75
2019-02-15T02:33:02.427Z,13.65
2019-02-15T02:33:35.240Z,12.78
2019-02-15T02:34:07.723Z,13.10
2019-02-15T02:34:40.200Z,13.95
2019-02-15T02:35:12.691Z,11.70
2019-02-15T02:35:45.479Z,14.18
2019-02-15T02:36:18.234Z,12.73
2019-02-15T02:36:52.368Z,13.83
2019-02-15T02:37:24.856Z,13.85
2019-02-15T02:37:57.332Z,13.48
2019-02-15T02:38:30.111Z,13.35
2019-02-15T02:39:04.103Z,13.93
2019-02-15T02:39:36.588Z,14.30
2019-02-15T02:40:09.083Z,13.05
2019-02-15T02:40:41.725Z,12.68
2019-02-15T02:41:14.215Z,12.82
2019-02-15T02:41:46.997Z,13.75
2019-02-15T02:42:19.492Z,12.90
2019-02-15T02:42:51.966Z,12.25
2019-02-15T02:43:24.727Z,13.15
2019-02-15T02:43:59.687Z,12.47
2019-02-15T02:44:31.968Z,11.83
2019-02-15T02:45:04.919Z,13.60
2019-02-15T02:45:37.797Z,13.40
2019-02-15T02:46:10.285Z,13.62
2019-02-15T02:46:42.875Z,13.70
2019-02-15T02:47:15.376Z,14.23
2019-02-15T02:47:47.861Z,12.75
2019-02-15T02:48:20.538Z,12.90
2019-02-15T02:48:53.029Z,12.60
2019-02-15T02:49:25.567Z,12.93
2019-02-15T02:49:58.348Z,12.95
2019-02-15T02:50:30.827Z,12.95
2019-02-15T02:51:03.313Z,12.03
2019-02-15T02:51:35.784Z,12.15
2019-02-15T02:52:08.382Z,12.93
2019-02-15T02:52:41.157Z,12.50
2019-02-15T02:53:13.936Z,12.78
2019-02-15T02:53:46.404Z,13.70
2019-02-15T02:54:19.308Z,12.93
2019-02-15T02:54:51.810Z,12.43
2019-02-15T02:55:24.285Z,12.68
2019-02-15T02:55:56.763Z,12.53
2019-02-15T02:56:30.199Z,12.95
2019-02-15T02:57:02.669Z,11.30
2019-02-15T02:57:35.142Z,13.70
2019-02-15T02:58:07.625Z,11.95
2019-02-15T02:58:40.120Z,11.88
2019-02-15T02:59:12.619Z,13.32
2019-02-15T02:59:45.105Z,11.90
2019-02-15T03:00:17.902Z,12.40
2019-02-15T03:00:50.376Z,12.98
2019-02-15T03:01:23.252Z,12.30
2019-02-15T03:01:56.114Z,12.28
2019-02-15T03:02:28.595Z,13.05
2019-02-15T03:03:01.111Z,11.73
2019-02-15T03:03:33.579Z,13.53
2019-02-15T03:04:06.066Z,13.62
2019-02-15T03:04:38.831Z,13.05
2019-02-15T03:05:11.432Z,12.80
2019-02-15T03:05:44.323Z,11.90
2019-02-15T03:06:17.099Z,12.63
2019-02-15T03:06:49.579Z,11.18
2019-02-15T03:07:22.073Z,12.85
2019-02-15T03:07:55.220Z,11.20
2019-02-15T03:08:28.057Z,12.40
2019-02-15T03:09:00.538Z,12.75
2019-02-15T03:09:32.990Z,12.30
2019-02-15T03:10:05.908Z,12.45
2019-02-15T03:10:38.406Z,12.07
2019-02-15T03:11:11.187Z,12.88
2019-02-15T03:11:43.997Z,11.10
2019-02-15T03:12:17.271Z,11.57
2019-02-15T03:12:49.762Z,12.70
2019-02-15T03:13:22.261Z,11.85
2019-02-15T03:13:55.021Z,12.43
2019-02-15T03:14:27.500Z,12.47
2019-02-15T03:15:00.416Z,12.47
2019-02-15T03:15:34.018Z,11.88
2019-02-15T03:16:06.502Z,12.35
2019-02-15T03:16:39.354Z,11.95
2019-02-15T03:17:12.138Z,13.15
2019-02-15T03:17:44.639Z,12.55
2019-02-15T03:18:17.106Z,12.58
2019-02-15T03:18:49.956Z,11.85
2019-02-15T03:19:22.451Z,12.43
2019-02-15T03:19:54.927Z,13.48
2019-02-15T03:20:31.376Z,12.35
2019-02-15T03:21:01.701Z,12.23
2019-02-15T03:21:34.450Z,12.40
2019-02-15T03:22:07.231Z,11.18
2019-02-15T03:22:39.720Z,12.30
2019-02-15T03:23:12.484Z,12.18
2019-02-15T03:23:44.967Z,13.05
2019-02-15T03:24:17.723Z,11.63
2019-02-15T03:24:50.596Z,12.37
2019-02-15T03:25:23.132Z,12.50
2019-02-15T03:25:55.893Z,13.10
2019-02-15T03:26:28.383Z,12.55
2019-02-15T03:27:00.886Z,12.37
2019-02-15T03:27:33.684Z,13.48
2019-02-15T03:28:06.574Z,12.03
2019-02-15T03:28:39.052Z,12.30
2019-02-15T03:29:11.516Z,11.30
2019-02-15T03:29:44.012Z,11.93
2019-02-15T03:30:16.492Z,12.43
2019-02-15T03:30:49.005Z,11.75
2019-02-15T03:31:21.505Z,12.03
2019-02-15T03:31:54.337Z,11.90
2019-02-15T03:32:26.829Z,11.70
2019-02-15T03:32:59.376Z,12.10
2019-02-15T03:33:31.863Z,12.10
2019-02-15T03:34:04.351Z,13.20
2019-02-15T03:34:36.853Z,11.63
2019-02-15T03:35:09.337Z,11.00
2019-02-15T03:35:54.064Z,13.15
2019-02-15T03:36:46.349Z,11.83
2019-02-15T03:37:41.111Z,11.30
2019-02-15T03:38:26.888Z,11.70
2019-02-15T03:39:09.588Z,11.00
2019-02-15T03:39:48.522Z,11.65
2019-02-15T03:40:30.827Z,11.63
2019-02-15T03:41:04.529Z,12.88
2019-02-15T03:41:37.387Z,12.70
2019-02-15T03:42:12.866Z,12.30
2019-02-15T03:42:45.631Z,12.33
2019-02-15T03:43:18.124Z,11.30
2019-02-15T03:43:50.651Z,12.55
2019-02-15T03:44:23.462Z,10.70
2019-02-15T03:44:55.939Z,12.03
2019-02-15T03:45:28.428Z,11.95
2019-02-15T03:46:01.272Z,13.13
2019-02-15T03:46:34.170Z,13.15
2019-02-15T03:47:06.943Z,12.90
2019-02-15T03:47:39.785Z,11.95
2019-02-15T03:48:12.557Z,12.07
2019-02-15T03:48:45.043Z,12.00
2019-02-15T03:49:17.892Z,12.23
2019-02-15T03:49:50.361Z,12.60
2019-02-15T03:50:22.844Z,11.95
2019-02-15T03:50:55.330Z,11.45
2019-02-15T03:51:27.840Z,11.10
2019-02-15T03:52:00.675Z,11.43
2019-02-15T03:52:33.150Z,12.37
2019-02-15T03:53:05.623Z,11.60
2019-02-15T03:53:38.454Z,11.40
2019-02-15T03:54:11.203Z,11.38
2019-02-15T03:54:44.247Z,11.43
2019-02-15T03:55:17.004Z,11.00
2019-02-15T03:55:50.011Z,13.15
2019-02-15T03:56:22.502Z,11.83
2019-02-15T03:56:54.964Z,11.78
2019-02-15T03:57:27.443Z,12.60
2019-02-15T03:57:59.939Z,12.03
2019-02-15T03:58:32.555Z,12.10
2019-02-15T03:59:05.314Z,12.53
2019-02-15T03:59:37.887Z,12.82
2019-02-15T04:00:11.568Z,13.18
2019-02-15T04:00:44.148Z,12.58
2019-02-15T04:01:16.910Z,11.08
2019-02-15T04:01:49.410Z,13.05
2019-02-15T04:02:21.883Z,12.70
2019-02-15T04:02:54.382Z,12.00
2019-02-15T04:03:27.134Z,12.25
2019-02-15T04:03:59.628Z,12.20
2019-02-15T04:04:32.104Z,12.68
2019-02-15T04:05:05.578Z,12.45
2019-02-15T04:05:38.369Z,12.13
2019-02-15T04:06:11.134Z,11.48
2019-02-15T04:06:43.615Z,12.93
2019-02-15T04:07:16.528Z,12.68
2019-02-15T04:07:49.005Z,12.15
2019-02-15T04:08:21.508Z,11.90
2019-02-15T04:08:54.250Z,11.68
2019-02-15T04:09:26.735Z,12.88
2019-02-15T04:09:59.585Z,12.30
2019-02-15T04:10:32.080Z,11.38
2019-02-15T04:11:05.065Z,11.57
2019-02-15T04:11:37.553Z,12.30
2019-02-15T04:12:10.590Z,13.10
2019-02-15T04:12:43.068Z,12.03
2019-02-15T04:13:15.552Z,12.18
2019-02-15T04:13:48.062Z,12.25
2019-02-15T04:14:20.916Z,13.00
2019-02-15T04:14:53.404Z,11.95
2019-02-15T04:15:25.912Z,12.85
2019-02-15T04:15:58.413Z,11.43
2019-02-15T04:16:30.923Z,14.03
2019-02-15T04:17:03.397Z,12.07
2019-02-15T04:17:36.190Z,11.88
2019-02-15T04:18:08.679Z,11.95
2019-02-15T04:18:41.172Z,13.35
2019-02-15T04:19:14.293Z,11.70
2019-02-15T04:19:47.055Z,11.10
2019-02-15T04:20:19.522Z,12.55
2019-02-15T04:20:52.392Z,12.18
2019-02-15T04:21:25.160Z,12.28
2019-02-15T04:21:57.991Z,12.70
2019-02-15T04:22:30.487Z,12.10
2019-02-15T04:23:02.982Z,12.65
2019-02-15T04:23:35.765Z,12.65
2019-02-15T04:24:08.271Z,11.73
2019-02-15T04:24:41.046Z,12.47
2019-02-15T04:25:13.535Z,12.18
2019-02-15T04:25:46.012Z,12.13
2019-02-15T04:26:18.536Z,11.88
2019-02-15T04:26:51.033Z,11.60
2019-02-15T04:27:23.588Z,11.48
2019-02-15T04:27:56.090Z,11.33
2019-02-15T04:28:29.008Z,11.85
2019-02-15T04:29:01.520Z,11.95
2019-02-15T04:29:34.003Z,11.08
2019-02-15T04:30:07.729Z,12.82
2019-02-15T04:30:40.222Z,11.63
2019-02-15T04:31:12.990Z,11.65
2019-02-15T04:31:45.473Z,11.12
2019-02-15T04:32:17.949Z,11.97
2019-02-15T04:32:50.528Z,11.95
2019-02-15T04:33:23.301Z,11.48
2019-02-15T04:33:56.091Z,12.13
2019-02-15T04:34:28.570Z,11.63
2019-02-15T04:35:01.053Z,12.80
2019-02-15T04:35:33.547Z,12.20
2019-02-15T04:36:06.034Z,12.35
2019-02-15T04:36:39.153Z,11.95
2019-02-15T04:37:11.647Z,12.70
2019-02-15T04:37:44.428Z,11.68
2019-02-15T04:38:16.948Z,12.53
2019-02-15T04:38:49.744Z,12.80
2019-02-15T04:39:22.519Z,11.25
2019-02-15T04:39:55.373Z,11.50
2019-02-15T04:40:28.250Z,11.55
2019-02-15T04:41:00.736Z,11.85
2019-02-15T04:41:33.253Z,11.22
2019-02-15T04:42:05.751Z,11.40
2019-02-15T04:42:38.228Z,13.00
2019-02-15T04:43:10.703Z,12.23
2019-02-15T04:43:43.228Z,12.35
2019-02-15T04:44:16.003Z,11.08
2019-02-15T04:44:49.202Z,11.95
2019-02-15T04:45:21.993Z,12.25
2019-02-15T04:45:54.502Z,12.07
2019-02-15T04:46:27.534Z,12.25
2019-02-15T04:47:00.747Z,11.80
2019-02-15T04:47:34.016Z,12.00
2019-02-15T04:48:06.790Z,12.05
2019-02-15T04:48:39.554Z,13.43
2019-02-15T04:49:12.361Z,12.00
2019-02-15T04:49:44.857Z,12.58
2019-02-15T04:50:17.344Z,12.60
2019-02-15T04:50:50.158Z,11.03
2019-02-15T04:51:23.537Z,13.05
2019-02-15T04:51:56.424Z,12.58
2019-02-15T04:52:28.908Z,12.60
2019-02-15T04:53:03.126Z,12.33
2019-02-15T04:53:35.681Z,12.40
2019-02-15T04:54:08.475Z,12.90
2019-02-15T04:54:40.987Z,11.93
2019-02-15T04:55:14.416Z,12.37
2019-02-15T04:55:47.216Z,11.25
2019-02-15T04:56:20.050Z,11.38
2019-02-15T04:56:52.526Z,13.65
2019-02-15T04:57:25.029Z,11.70
2019-02-15T04:57:57.525Z,11.15
2019-02-15T04:58:30.341Z,12.85
2019-02-15T04:59:03.280Z,12.50
2019-02-15T04:59:36.393Z,12.68
2019-02-15T05:00:08.926Z,11.93
2019-02-15T05:00:41.394Z,12.33
2019-02-15T05:01:13.899Z,11.70
2019-02-15T05:01:46.403Z,12.65
2019-02-15T05:02:19.267Z,11.45
2019-02-15T05:02:51.756Z,11.80
2019-02-15T05:03:24.279Z,11.63
2019-02-15T05:03:56.821Z,12.98
2019-02-15T05:04:29.312Z,12.45
2019-02-15T05:05:02.083Z,13.45
2019-02-15T05:05:34.946Z,11.78
2019-02-15T05:06:07.475Z,13.15
2019-02-15T05:06:39.973Z,11.55
2019-02-15T05:07:12.732Z,12.00
2019-02-15T05:07:45.484Z,12.23
2019-02-15T05:08:17.973Z,12.13
2019-02-15T05:08:50.455Z,12.10
2019-02-15T05:09:24.050Z,12.75
2019-02-15T05:09:56.644Z,11.75
2019-02-15T05:10:29.144Z,12.30
2019-02-15T05:11:01.671Z,11.83
2019-02-15T05:11:34.458Z,11.83
2019-02-15T05:12:06.954Z,12.43
2019-02-15T05:12:40.356Z,11.73
2019-02-15T05:13:12.840Z,12.25
2019-02-15T05:13:45.330Z,12.73
2019-02-15T05:14:18.097Z,13.60
2019-02-15T05:14:53.210Z,13.03
2019-02-15T05:15:25.302Z,12.40
2019-02-15T05:15:57.772Z,12.10
2019-02-15T05:16:30.278Z,12.53
2019-02-15T05:17:03.130Z,13.43
2019-02-15T05:17:36.023Z,12.80
2019-02-15T05:18:08.515Z,12.90
2019-02-15T05:18:40.986Z,13.32
2019-02-15T05:19:13.819Z,12.40
2019-02-15T05:19:46.326Z,13.22
2019-02-15T05:20:19.105Z,12.50
2019-02-15T05:20:52.389Z,12.43
2019-02-15T05:21:24.892Z,11.83
2019-02-15T05:21:57.412Z,12.68
2019-02-15T05:22:30.288Z,12.35
2019-02-15T05:23:03.123Z,11.00
2019-02-15T05:23:36.223Z,12.70
2019-02-15T05:24:09.060Z,12.45
2019-02-15T05:24:41.827Z,12.40
2019-02-15T05:25:14.312Z,13.22
2019-02-15T05:25:46.810Z,13.65
2019-02-15T05:26:19.931Z,12.05
2019-02-15T05:26:52.982Z,12.47
2019-02-15T05:27:25.530Z,10.85
2019-02-15T05:27:58.290Z,12.68
2019-02-15T05:28:31.074Z,11.18
2019-02-15T05:29:03.672Z,12.47
2019-02-15T05:29:36.172Z,12.25
2019-02-15T05:30:08.653Z,12.30
2019-02-15T05:30:41.142Z,11.80
2019-02-15T05:31:13.631Z,12.35
2019-02-15T05:31:46.255Z,12.33
2019-02-15T05:32:18.764Z,11.55
2019-02-15T05:32:51.561Z,12.53
2019-02-15T05:33:24.335Z,13.43
2019-02-15T05:33:57.126Z,11.65
2019-02-15T05:34:29.731Z,12.33
2019-02-15T05:35:02.235Z,12.82
2019-02-15T05:35:34.979Z,13.18
2019-02-15T05:36:07.454Z,11.65
2019-02-15T05:36:39.945Z,11.88
2019-02-15T05:37:12.418Z,12.80
2019-02-15T05:37:45.308Z,11.78
2019-02-15T05:38:17.814Z,13.10
2019-02-15T05:38:50.562Z,13.62
2019-02-15T05:39:23.053Z,13.00
2019-02-15T05:39:55.868Z,11.88
2019-02-15T05:40:28.804Z,13.25
2019-02-15T05:41:01.914Z,12.03
2019-02-15T05:41:34.400Z,12.70
2019-02-15T05:42:07.199Z,12.25
2019-02-15T05:42:39.669Z,11.48
2019-02-15T05:43:12.453Z,13.05
2019-02-15T05:43:44.978Z,13.00
2019-02-15T05:44:17.731Z,12.78
2019-02-15T05:44:50.219Z,12.58
2019-02-15T05:45:22.776Z,13.85
2019-02-15T05:45:55.207Z,13.40
2019-02-15T05:46:28.111Z,14.40
2019-02-15T05:47:00.601Z,14.63
2019-02-15T05:47:33.400Z,15.50
2019-02-15T05:48:05.864Z,14.15
2019-02-15T05:48:39.028Z,15.35
2019-02-15T05:49:11.554Z,14.78
2019-02-15T05:49:44.058Z,16.25
2019-02-15T05:50:16.822Z,17.15
2019-02-15T05:50:49.314Z,16.85
2019-02-15T05:51:22.087Z,17.62
2019-02-15T05:51:54.589Z,17.60
2019-02-15T05:53:00.701Z,17.23
2019-02-15T05:53:33.164Z,19.82
2019-02-15T05:54:05.654Z,16.60
2019-02-15T05:54:38.180Z,16.70
2019-02-15T05:55:10.927Z,18.65
2019-02-15T05:55:43.390Z,18.05
2019-02-15T05:56:16.218Z,16.30
2019-02-15T05:56:49.044Z,18.48
2019-02-15T05:57:21.549Z,17.30
2019-02-15T05:57:54.708Z,17.02
2019-02-15T05:58:27.216Z,15.65
2019-02-15T05:58:59.703Z,15.48
2019-02-15T05:59:32.562Z,16.30
2019-02-15T06:00:06.724Z,15.78
2019-02-15T06:00:39.198Z,15.35
2019-02-15T06:01:11.930Z,13.70
2019-02-15T06:01:44.789Z,13.83
2019-02-15T06:02:17.256Z,14.18
2019-02-15T06:02:49.770Z,13.62
2019-02-15T06:03:22.256Z,13.93
2019-02-15T06:03:54.760Z,13.03
2019-02-15T06:04:27.553Z,13.35
2019-02-15T06:05:00.361Z,12.98
2019-02-15T06:05:32.874Z,13.90
2019-02-15T06:06:05.358Z,12.85
2019-02-15T06:06:38.515Z,12.28
2019-02-15T06:07:11.005Z,13.13
2019-02-15T06:07:43.494Z,12.73
2019-02-15T06:08:15.971Z,12.50
2019-02-15T06:08:48.813Z,13.20
2019-02-15T06:09:21.279Z,12.53
2019-02-15T06:09:53.755Z,14.58
2019-02-15T06:10:26.594Z,13.10
2019-02-15T06:11:07.218Z,13.55
2019-02-15T06:11:34.070Z,12.10
2019-02-15T06:12:06.929Z,11.83
2019-02-15T06:12:39.712Z,12.55
2019-02-15T06:13:12.203Z,12.25
2019-02-15T06:13:44.973Z,12.15
2019-02-15T06:14:17.463Z,12.43
2019-02-15T06:14:49.947Z,12.33
2019-02-15T06:15:22.447Z,12.78
2019-02-15T06:15:54.923Z,12.80
2019-02-15T06:16:27.773Z,12.60
2019-02-15T06:17:01.806Z,12.60
2019-02-15T06:17:34.526Z,13.20
2019-02-15T06:18:07.399Z,15.25
2019-02-15T06:18:39.888Z,14.73
2019-02-15T06:19:12.657Z,14.87
2019-02-15T06:19:45.495Z,15.78
2019-02-15T06:20:18.384Z,18.12
2019-02-15T06:20:51.209Z,15.83
2019-02-15T06:21:24.139Z,18.52
2019-02-15T06:21:56.640Z,16.93
2019-02-15T06:22:29.293Z,18.37
2019-02-15T06:23:01.793Z,15.40
2019-02-15T06:23:34.575Z,13.38
2019-02-15T06:24:07.401Z,14.28
2019-02-15T06:24:40.213Z,14.70
2019-02-15T06:25:12.696Z,15.55
2019-02-15T06:25:45.556Z,13.13
2019-02-15T06:26:18.049Z,13.98
2019-02-15T06:26:50.866Z,13.30
2019-02-15T06:27:23.377Z,12.50
2019-02-15T06:27:56.611Z,12.00
2019-02-15T06:28:29.382Z,13.70
2019-02-15T06:29:01.900Z,13.25
2019-02-15T06:29:34.372Z,12.35
2019-02-15T06:30:07.229Z,13.32
2019-02-15T06:30:39.717Z,12.60
2019-02-15T06:31:12.605Z,12.75
2019-02-15T06:31:45.087Z,11.93
2019-02-15T06:32:17.576Z,12.75
2019-02-15T06:32:50.696Z,13.50
2019-02-15T06:33:23.191Z,12.35
2019-02-15T06:33:56.356Z,12.13
2019-02-15T06:34:29.561Z,12.55
2019-02-15T06:35:02.064Z,11.80
2019-02-15T06:35:34.579Z,12.33
2019-02-15T06:36:07.412Z,11.75
2019-02-15T06:36:39.889Z,12.95
2019-02-15T06:37:12.377Z,12.15
2019-02-15T06:37:44.883Z,11.05
2019-02-15T06:38:17.391Z,12.20
2019-02-15T06:38:49.861Z,11.60
2019-02-15T06:39:22.678Z,11.57
2019-02-15T06:39:55.168Z,11.12
2019-02-15T06:40:27.942Z,11.12
2019-02-15T06:41:00.423Z,11.88
2019-02-15T06:41:33.041Z,11.33
2019-02-15T06:42:06.073Z,10.08
2019-02-15T06:42:38.569Z,11.57
2019-02-15T06:43:11.089Z,12.95
2019-02-15T06:43:43.908Z,11.40
2019-02-15T06:44:16.779Z,10.93
2019-02-15T06:44:49.682Z,10.65
2019-02-15T06:45:24.788Z,10.50
2019-02-15T06:45:56.468Z,10.60
2019-02-15T06:46:29.284Z,11.45
2019-02-15T06:47:01.752Z,10.93
2019-02-15T06:47:34.565Z,10.68
2019-02-15T06:48:07.072Z,9.90
2019-02-15T06:48:39.658Z,11.93
2019-02-15T06:49:12.180Z,10.65
2019-02-15T06:49:44.650Z,10.98
2019-02-15T06:50:17.135Z,11.45
2019-02-15T06:50:49.622Z,11.05
2019-02-15T06:51:22.089Z,10.75
2019-02-15T06:51:54.563Z,10.95
2019-02-15T06:52:27.046Z,10.48
2019-02-15T06:52:59.526Z,10.65
2019-02-15T06:53:32.312Z,9.65
2019-02-15T06:54:04.771Z,10.25
2019-02-15T06:54:37.276Z,10.72
2019-02-15T06:55:09.736Z,10.72
2019-02-15T06:55:42.194Z,11.05
2019-02-15T06:56:14.667Z,10.53
2019-02-15T06:56:48.076Z,10.15
2019-02-15T06:57:21.741Z,9.83
2019-02-15T06:57:54.141Z,9.93
2019-02-15T06:58:27.002Z,10.48
2019-02-15T06:59:17.889Z,10.82
2019-02-15T07:00:08.871Z,9.43
2019-02-15T07:01:01.043Z,9.85
2019-02-15T07:01:39.199Z,9.73
2019-02-15T07:02:28.559Z,9.95
2019-02-15T07:03:19.338Z,9.55
2019-02-15T07:03:58.406Z,10.38
2019-02-15T07:04:41.662Z,10.40
2019-02-15T07:05:25.626Z,10.40
2019-02-15T07:05:58.502Z,10.72
2019-02-15T07:06:31.274Z,9.45
2019-02-15T07:07:04.013Z,9.65
2019-02-15T07:07:36.499Z,9.93
2019-02-15T07:08:08.971Z,10.20
2019-02-15T07:08:41.442Z,10.50
2019-02-15T07:09:15.188Z,11.05
2019-02-15T07:09:47.890Z,10.15
2019-02-15T07:10:20.823Z,9.60
2019-02-15T07:10:53.322Z,11.45
2019-02-15T07:11:26.280Z,10.98
2019-02-15T07:11:58.787Z,9.60
2019-02-15T07:12:31.255Z,9.50
2019-02-15T07:13:03.710Z,10.45
2019-02-15T07:13:36.614Z,10.43
2019-02-15T07:14:09.391Z,11.08
2019-02-15T07:14:41.876Z,9.90
2019-02-15T07:15:14.779Z,10.82
2019-02-15T07:15:47.582Z,10.80
2019-02-15T07:16:20.079Z,10.75
2019-02-15T07:16:52.843Z,10.48
2019-02-15T07:17:26.000Z,9.95
2019-02-15T07:17:58.473Z,11.30
2019-02-15T07:18:30.975Z,11.57
2019-02-15T07:19:03.424Z,9.80
2019-02-15T07:19:36.550Z,11.20
2019-02-15T07:20:09.632Z,10.00
2019-02-15T07:20:42.094Z,10.32
2019-02-15T07:21:14.555Z,10.80
2019-02-15T07:21:47.042Z,10.68
2019-02-15T07:22:19.858Z,10.68
2019-02-15T07:22:52.324Z,10.15
2019-02-15T07:23:24.777Z,10.98
2019-02-15T07:23:57.250Z,10.90
2019-02-15T07:24:29.708Z,10.53